sensor_id;sensor_type;location;lat;lon;timestamp;P1;durP1;ratioP1;P2;durP2;ratioP2
29940;SDS011;16801;53.562;10.038;2022-09-01T00:01:09;0.70;;;0.70;;
29940;SDS011;16801;53.562;10.038;2022-09-01T00:04:34;1.08;;;0.75;;
29940;SDS011;16801;53.562;10.038;2022-09-01T00:07:57;1.65;;;0.80;;
29940;SDS011;16801;53.562;10.038;2022-09-01T00:11:18;0.93;;;0.82;;
29940;SDS011;16801;53.562;10.038;2022-09-01T00:14:40;0.70;;;0.70;;
29940;SDS011;16801;53.562;10.038;2022-09-01T00:18:01;1.20;;;0.88;;
29940;SDS011;16801;53.562;10.038;2022-09-01T00:21:25;1.98;;;1.65;;
29940;SDS011;16801;53.562;10.038;2022-09-01T00:24:47;1.33;;;0.80;;
29940;SDS011;16801;53.562;10.038;2022-09-01T00:28:08;2.20;;;0.75;;
29940;SDS011;16801;53.562;10.038;2022-09-01T00:31:30;0.90;;;0.80;;
29940;SDS011;16801;53.562;10.038;2022-09-01T00:34:51;1.00;;;1.00;;
29940;SDS011;16801;53.562;10.038;2022-09-01T00:38:13;1.02;;;0.93;;
29940;SDS011;16801;53.562;10.038;2022-09-01T00:41:35;0.50;;;0.50;;
29940;SDS011;16801;53.562;10.038;2022-09-01T00:44:58;1.55;;;0.80;;
29940;SDS011;16801;53.562;10.038;2022-09-01T00:48:19;1.75;;;0.93;;
29940;SDS011;16801;53.562;10.038;2022-09-01T00:51:41;0.88;;;0.60;;
29940;SDS011;16801;53.562;10.038;2022-09-01T00:55:09;2.03;;;0.90;;
29940;SDS011;16801;53.562;10.038;2022-09-01T00:58:34;1.02;;;0.77;;
29940;SDS011;16801;53.562;10.038;2022-09-01T01:01:56;1.45;;;0.50;;
29940;SDS011;16801;53.562;10.038;2022-09-01T01:05:18;1.08;;;1.00;;
29940;SDS011;16801;53.562;10.038;2022-09-01T01:08:40;1.00;;;0.60;;
29940;SDS011;16801;53.562;10.038;2022-09-01T01:12:17;0.68;;;0.50;;
29940;SDS011;16801;53.562;10.038;2022-09-01T01:15:38;0.80;;;0.68;;
29940;SDS011;16801;53.562;10.038;2022-09-01T01:19:02;0.52;;;0.52;;
29940;SDS011;16801;53.562;10.038;2022-09-01T01:22:27;0.57;;;0.50;;
29940;SDS011;16801;53.562;10.038;2022-09-01T01:26:13;0.55;;;0.50;;
29940;SDS011;16801;53.562;10.038;2022-09-01T01:29:35;3.42;;;1.35;;
29940;SDS011;16801;53.562;10.038;2022-09-01T01:32:58;0.80;;;0.50;;
29940;SDS011;16801;53.562;10.038;2022-09-01T01:36:21;0.90;;;0.82;;
29940;SDS011;16801;53.562;10.038;2022-09-01T01:39:53;1.40;;;0.80;;
29940;SDS011;16801;53.562;10.038;2022-09-01T01:43:15;0.70;;;0.70;;
29940;SDS011;16801;53.562;10.038;2022-09-01T01:46:42;0.55;;;0.50;;
29940;SDS011;16801;53.562;10.038;2022-09-01T01:50:05;0.57;;;0.40;;
29940;SDS011;16801;53.562;10.038;2022-09-01T01:53:29;0.77;;;0.60;;
29940;SDS011;16801;53.562;10.038;2022-09-01T01:56:50;0.50;;;0.50;;
29940;SDS011;16801;53.562;10.038;2022-09-01T02:00:15;0.33;;;0.33;;
29940;SDS011;16801;53.562;10.038;2022-09-01T02:03:38;0.40;;;0.40;;
29940;SDS011;16801;53.562;10.038;2022-09-01T02:06:59;0.50;;;0.50;;
29940;SDS011;16801;53.562;10.038;2022-09-01T02:10:22;0.57;;;0.53;;
29940;SDS011;16801;53.562;10.038;2022-09-01T02:13:44;0.68;;;0.68;;
29940;SDS011;16801;53.562;10.038;2022-09-01T02:17:06;0.70;;;0.70;;
29940;SDS011;16801;53.562;10.038;2022-09-01T02:20:28;1.07;;;1.07;;
29940;SDS011;16801;53.562;10.038;2022-09-01T02:23:52;1.00;;;0.90;;
29940;SDS011;16801;53.562;10.038;2022-09-01T02:27:19;0.40;;;0.40;;
29940;SDS011;16801;53.562;10.038;2022-09-01T02:30:46;0.65;;;0.52;;
29940;SDS011;16801;53.562;10.038;2022-09-01T02:34:12;1.02;;;1.02;;
29940;SDS011;16801;53.562;10.038;2022-09-01T02:37:33;1.23;;;0.90;;
29940;SDS011;16801;53.562;10.038;2022-09-01T02:40:55;0.50;;;0.50;;
29940;SDS011;16801;53.562;10.038;2022-09-01T02:44:17;0.40;;;0.40;;
29940;SDS011;16801;53.562;10.038;2022-09-01T02:47:40;0.82;;;0.40;;
29940;SDS011;16801;53.562;10.038;2022-09-01T02:51:09;0.50;;;0.50;;
29940;SDS011;16801;53.562;10.038;2022-09-01T02:54:33;0.87;;;0.60;;
29940;SDS011;16801;53.562;10.038;2022-09-01T02:57:55;0.50;;;0.40;;
29940;SDS011;16801;53.562;10.038;2022-09-01T03:01:19;1.10;;;0.80;;
29940;SDS011;16801;53.562;10.038;2022-09-01T03:04:43;0.40;;;0.40;;
29940;SDS011;16801;53.562;10.038;2022-09-01T03:08:06;1.73;;;1.23;;
29940;SDS011;16801;53.562;10.038;2022-09-01T03:11:31;0.70;;;0.70;;
29940;SDS011;16801;53.562;10.038;2022-09-01T03:14:53;0.90;;;0.70;;
29940;SDS011;16801;53.562;10.038;2022-09-01T03:18:15;0.43;;;0.43;;
29940;SDS011;16801;53.562;10.038;2022-09-01T03:21:37;0.80;;;0.80;;
29940;SDS011;16801;53.562;10.038;2022-09-01T03:25:02;3.47;;;1.03;;
29940;SDS011;16801;53.562;10.038;2022-09-01T03:28:23;0.90;;;0.40;;
29940;SDS011;16801;53.562;10.038;2022-09-01T03:31:45;0.70;;;0.50;;
29940;SDS011;16801;53.562;10.038;2022-09-01T03:35:06;2.10;;;1.20;;
29940;SDS011;16801;53.562;10.038;2022-09-01T03:38:28;2.43;;;2.23;;
29940;SDS011;16801;53.562;10.038;2022-09-01T03:41:52;5.13;;;4.57;;
29940;SDS011;16801;53.562;10.038;2022-09-01T03:45:16;4.93;;;2.67;;
29940;SDS011;16801;53.562;10.038;2022-09-01T03:48:39;4.93;;;3.13;;
29940;SDS011;16801;53.562;10.038;2022-09-01T03:52:01;4.60;;;4.30;;
29940;SDS011;16801;53.562;10.038;2022-09-01T03:55:24;1.80;;;1.70;;
29940;SDS011;16801;53.562;10.038;2022-09-01T03:58:51;1.60;;;1.50;;
29940;SDS011;16801;53.562;10.038;2022-09-01T04:02:14;1.17;;;1.07;;
29940;SDS011;16801;53.562;10.038;2022-09-01T04:05:36;2.67;;;2.43;;
29940;SDS011;16801;53.562;10.038;2022-09-01T04:08:59;3.43;;;3.07;;
29940;SDS011;16801;53.562;10.038;2022-09-01T04:12:24;3.77;;;3.37;;
29940;SDS011;16801;53.562;10.038;2022-09-01T04:15:46;1.80;;;1.30;;
29940;SDS011;16801;53.562;10.038;2022-09-01T04:19:07;2.93;;;2.00;;
29940;SDS011;16801;53.562;10.038;2022-09-01T04:22:38;2.77;;;2.57;;
29940;SDS011;16801;53.562;10.038;2022-09-01T04:26:00;2.27;;;1.67;;
29940;SDS011;16801;53.562;10.038;2022-09-01T04:29:27;2.47;;;2.27;;
29940;SDS011;16801;53.562;10.038;2022-09-01T04:32:51;2.30;;;2.03;;
29940;SDS011;16801;53.562;10.038;2022-09-01T04:36:16;1.70;;;1.60;;
29940;SDS011;16801;53.562;10.038;2022-09-01T04:39:40;3.57;;;1.80;;
29940;SDS011;16801;53.562;10.038;2022-09-01T04:43:07;3.07;;;1.83;;
29940;SDS011;16801;53.562;10.038;2022-09-01T04:46:29;2.70;;;1.83;;
29940;SDS011;16801;53.562;10.038;2022-09-01T04:49:57;1.73;;;1.40;;
29940;SDS011;16801;53.562;10.038;2022-09-01T04:53:20;2.67;;;1.70;;
29940;SDS011;16801;53.562;10.038;2022-09-01T04:56:44;8.27;;;6.87;;
29940;SDS011;16801;53.562;10.038;2022-09-01T05:00:09;3.67;;;3.37;;
29940;SDS011;16801;53.562;10.038;2022-09-01T05:03:41;2.60;;;2.30;;
29940;SDS011;16801;53.562;10.038;2022-09-01T05:07:08;4.00;;;2.63;;
29940;SDS011;16801;53.562;10.038;2022-09-01T05:10:32;2.53;;;1.57;;
29940;SDS011;16801;53.562;10.038;2022-09-01T05:14:06;1.30;;;1.30;;
29940;SDS011;16801;53.562;10.038;2022-09-01T05:17:28;0.87;;;0.87;;
29940;SDS011;16801;53.562;10.038;2022-09-01T05:20:50;1.13;;;0.90;;
29940;SDS011;16801;53.562;10.038;2022-09-01T05:24:14;0.73;;;0.73;;
29940;SDS011;16801;53.562;10.038;2022-09-01T05:27:38;1.10;;;0.83;;
29940;SDS011;16801;53.562;10.038;2022-09-01T05:31:01;1.13;;;0.90;;
29940;SDS011;16801;53.562;10.038;2022-09-01T05:34:24;1.13;;;1.00;;
29940;SDS011;16801;53.562;10.038;2022-09-01T05:37:46;6.13;;;1.10;;
29940;SDS011;16801;53.562;10.038;2022-09-01T05:41:13;1.00;;;0.90;;
29940;SDS011;16801;53.562;10.038;2022-09-01T05:44:37;4.47;;;0.97;;
29940;SDS011;16801;53.562;10.038;2022-09-01T05:48:02;2.33;;;0.83;;
29940;SDS011;16801;53.562;10.038;2022-09-01T05:51:25;2.70;;;1.37;;
29940;SDS011;16801;53.562;10.038;2022-09-01T05:54:47;3.40;;;2.10;;
29940;SDS011;16801;53.562;10.038;2022-09-01T05:58:11;3.30;;;0.80;;
29940;SDS011;16801;53.562;10.038;2022-09-01T06:01:34;4.43;;;1.00;;
29940;SDS011;16801;53.562;10.038;2022-09-01T06:05:00;1.33;;;0.93;;
29940;SDS011;16801;53.562;10.038;2022-09-01T06:08:24;5.20;;;2.13;;
29940;SDS011;16801;53.562;10.038;2022-09-01T06:11:48;2.90;;;1.53;;
29940;SDS011;16801;53.562;10.038;2022-09-01T06:15:11;3.60;;;2.77;;
29940;SDS011;16801;53.562;10.038;2022-09-01T06:18:41;4.17;;;3.23;;
29940;SDS011;16801;53.562;10.038;2022-09-01T06:22:02;4.87;;;2.50;;
29940;SDS011;16801;53.562;10.038;2022-09-01T06:25:24;2.80;;;1.23;;
29940;SDS011;16801;53.562;10.038;2022-09-01T06:28:49;2.20;;;1.33;;
29940;SDS011;16801;53.562;10.038;2022-09-01T06:32:14;5.93;;;1.70;;
29940;SDS011;16801;53.562;10.038;2022-09-01T06:35:35;3.70;;;1.40;;
29940;SDS011;16801;53.562;10.038;2022-09-01T06:38:58;2.43;;;1.00;;
29940;SDS011;16801;53.562;10.038;2022-09-01T06:42:21;2.47;;;2.20;;
29940;SDS011;16801;53.562;10.038;2022-09-01T06:45:48;1.93;;;1.83;;
29940;SDS011;16801;53.562;10.038;2022-09-01T06:49:15;1.27;;;0.80;;
29940;SDS011;16801;53.562;10.038;2022-09-01T06:52:36;2.33;;;1.63;;
29940;SDS011;16801;53.562;10.038;2022-09-01T06:55:59;2.93;;;1.97;;
29940;SDS011;16801;53.562;10.038;2022-09-01T06:59:22;1.33;;;1.07;;
29940;SDS011;16801;53.562;10.038;2022-09-01T07:02:45;5.50;;;1.42;;
29940;SDS011;16801;53.562;10.038;2022-09-01T07:06:34;1.67;;;1.17;;
29940;SDS011;16801;53.562;10.038;2022-09-01T07:10:10;1.10;;;1.00;;
29940;SDS011;16801;53.562;10.038;2022-09-01T07:13:39;0.60;;;0.60;;
29940;SDS011;16801;53.562;10.038;2022-09-01T07:17:01;5.18;;;4.70;;
29940;SDS011;16801;53.562;10.038;2022-09-01T07:20:22;4.95;;;3.00;;
29940;SDS011;16801;53.562;10.038;2022-09-01T07:23:47;1.97;;;1.83;;
29940;SDS011;16801;53.562;10.038;2022-09-01T07:27:09;1.10;;;1.00;;
29940;SDS011;16801;53.562;10.038;2022-09-01T07:30:31;1.00;;;0.65;;
29940;SDS011;16801;53.562;10.038;2022-09-01T07:33:55;1.30;;;0.80;;
29940;SDS011;16801;53.562;10.038;2022-09-01T07:37:19;0.70;;;0.70;;
29940;SDS011;16801;53.562;10.038;2022-09-01T07:40:43;0.68;;;0.55;;
29940;SDS011;16801;53.562;10.038;2022-09-01T07:44:25;0.70;;;0.70;;
29940;SDS011;16801;53.562;10.038;2022-09-01T07:48:09;0.85;;;0.73;;
29940;SDS011;16801;53.562;10.038;2022-09-01T07:51:37;0.30;;;0.30;;
29940;SDS011;16801;53.562;10.038;2022-09-01T07:54:59;0.85;;;0.40;;
29940;SDS011;16801;53.562;10.038;2022-09-01T07:58:22;0.30;;;0.30;;
29940;SDS011;16801;53.562;10.038;2022-09-01T08:01:50;0.40;;;0.38;;
29940;SDS011;16801;53.562;10.038;2022-09-01T08:05:13;2.53;;;0.32;;
29940;SDS011;16801;53.562;10.038;2022-09-01T08:08:40;0.32;;;0.32;;
29940;SDS011;16801;53.562;10.038;2022-09-01T08:12:02;1.27;;;0.65;;
29940;SDS011;16801;53.562;10.038;2022-09-01T08:15:28;0.68;;;0.68;;
29940;SDS011;16801;53.562;10.038;2022-09-01T08:18:49;0.30;;;0.30;;
29940;SDS011;16801;53.562;10.038;2022-09-01T08:22:18;1.40;;;0.30;;
29940;SDS011;16801;53.562;10.038;2022-09-01T08:25:49;1.08;;;0.43;;
29940;SDS011;16801;53.562;10.038;2022-09-01T08:29:10;0.30;;;0.30;;
29940;SDS011;16801;53.562;10.038;2022-09-01T08:32:36;1.00;;;0.43;;
29940;SDS011;16801;53.562;10.038;2022-09-01T08:36:01;0.65;;;0.35;;
29940;SDS011;16801;53.562;10.038;2022-09-01T08:39:23;3.92;;;0.50;;
29940;SDS011;16801;53.562;10.038;2022-09-01T08:42:48;0.40;;;0.40;;
29940;SDS011;16801;53.562;10.038;2022-09-01T08:46:18;0.40;;;0.40;;
29940;SDS011;16801;53.562;10.038;2022-09-01T08:49:47;1.85;;;0.47;;
29940;SDS011;16801;53.562;10.038;2022-09-01T08:53:31;0.82;;;0.52;;
29940;SDS011;16801;53.562;10.038;2022-09-01T08:56:58;0.20;;;0.20;;
29940;SDS011;16801;53.562;10.038;2022-09-01T09:00:52;0.32;;;0.32;;
29940;SDS011;16801;53.562;10.038;2022-09-01T09:04:20;0.40;;;0.40;;
29940;SDS011;16801;53.562;10.038;2022-09-01T09:08:01;1.08;;;0.63;;
29940;SDS011;16801;53.562;10.038;2022-09-01T09:11:47;0.98;;;0.28;;
29940;SDS011;16801;53.562;10.038;2022-09-01T09:15:22;0.57;;;0.25;;
29940;SDS011;16801;53.562;10.038;2022-09-01T09:18:53;1.45;;;1.10;;
29940;SDS011;16801;53.562;10.038;2022-09-01T09:22:18;0.50;;;0.40;;
29940;SDS011;16801;53.562;10.038;2022-09-01T09:25:41;2.60;;;1.20;;
29940;SDS011;16801;53.562;10.038;2022-09-01T09:29:02;0.40;;;0.40;;
29940;SDS011;16801;53.562;10.038;2022-09-01T09:32:23;0.47;;;0.40;;
29940;SDS011;16801;53.562;10.038;2022-09-01T09:36:16;0.40;;;0.30;;
29940;SDS011;16801;53.562;10.038;2022-09-01T09:39:38;0.30;;;0.30;;
29940;SDS011;16801;53.562;10.038;2022-09-01T09:43:05;0.20;;;0.20;;
29940;SDS011;16801;53.562;10.038;2022-09-01T09:46:32;1.30;;;0.43;;
29940;SDS011;16801;53.562;10.038;2022-09-01T09:49:55;0.30;;;0.30;;
29940;SDS011;16801;53.562;10.038;2022-09-01T09:53:31;0.30;;;0.30;;
29940;SDS011;16801;53.562;10.038;2022-09-01T10:00:34;1.17;;;0.60;;
29940;SDS011;16801;53.562;10.038;2022-09-01T10:03:56;0.28;;;0.28;;
29940;SDS011;16801;53.562;10.038;2022-09-01T10:07:26;0.30;;;0.30;;
29940;SDS011;16801;53.562;10.038;2022-09-01T10:10:50;0.25;;;0.20;;
29940;SDS011;16801;53.562;10.038;2022-09-01T10:14:13;0.43;;;0.40;;
29940;SDS011;16801;53.562;10.038;2022-09-01T10:17:38;0.68;;;0.68;;
29940;SDS011;16801;53.562;10.038;2022-09-01T10:21:02;1.58;;;0.32;;
29940;SDS011;16801;53.562;10.038;2022-09-01T10:24:28;0.15;;;0.13;;
29940;SDS011;16801;53.562;10.038;2022-09-01T10:27:53;0.90;;;0.30;;
29940;SDS011;16801;53.562;10.038;2022-09-01T10:31:18;0.80;;;0.70;;
29940;SDS011;16801;53.562;10.038;2022-09-01T10:34:42;0.50;;;0.50;;
29940;SDS011;16801;53.562;10.038;2022-09-01T10:38:06;0.28;;;0.28;;
29940;SDS011;16801;53.562;10.038;2022-09-01T10:41:48;0.40;;;0.38;;
29940;SDS011;16801;53.562;10.038;2022-09-01T10:45:16;0.28;;;0.28;;
29940;SDS011;16801;53.562;10.038;2022-09-01T10:48:42;0.40;;;0.40;;
29940;SDS011;16801;53.562;10.038;2022-09-01T10:52:05;3.10;;;2.78;;
29940;SDS011;16801;53.562;10.038;2022-09-01T10:55:28;1.33;;;1.00;;
29940;SDS011;16801;53.562;10.038;2022-09-01T10:58:58;0.38;;;0.38;;
29940;SDS011;16801;53.562;10.038;2022-09-01T11:02:24;0.73;;;0.30;;
29940;SDS011;16801;53.562;10.038;2022-09-01T11:05:58;0.75;;;0.57;;
29940;SDS011;16801;53.562;10.038;2022-09-01T11:09:24;0.20;;;0.20;;
29940;SDS011;16801;53.562;10.038;2022-09-01T11:12:49;0.45;;;0.20;;
29940;SDS011;16801;53.562;10.038;2022-09-01T11:16:32;0.30;;;0.30;;
29940;SDS011;16801;53.562;10.038;2022-09-01T11:20:05;0.30;;;0.20;;
29940;SDS011;16801;53.562;10.038;2022-09-01T11:23:29;2.05;;;0.20;;
29940;SDS011;16801;53.562;10.038;2022-09-01T11:26:51;1.45;;;0.25;;
29940;SDS011;16801;53.562;10.038;2022-09-01T11:30:14;2.00;;;0.50;;
29940;SDS011;16801;53.562;10.038;2022-09-01T11:33:41;0.77;;;0.30;;
29940;SDS011;16801;53.562;10.038;2022-09-01T11:37:11;0.38;;;0.30;;
29940;SDS011;16801;53.562;10.038;2022-09-01T11:40:35;0.20;;;0.20;;
29940;SDS011;16801;53.562;10.038;2022-09-01T11:43:57;1.05;;;0.38;;
29940;SDS011;16801;53.562;10.038;2022-09-01T11:47:21;3.60;;;0.40;;
29940;SDS011;16801;53.562;10.038;2022-09-01T11:50:44;5.35;;;4.07;;
29940;SDS011;16801;53.562;10.038;2022-09-01T11:54:17;0.52;;;0.52;;
29940;SDS011;16801;53.562;10.038;2022-09-01T11:57:39;0.30;;;0.30;;
29940;SDS011;16801;53.562;10.038;2022-09-01T12:01:11;3.42;;;1.35;;
29940;SDS011;16801;53.562;10.038;2022-09-01T12:04:34;0.50;;;0.30;;
29940;SDS011;16801;53.562;10.038;2022-09-01T12:07:56;0.52;;;0.52;;
29940;SDS011;16801;53.562;10.038;2022-09-01T12:11:19;0.28;;;0.28;;
29940;SDS011;16801;53.562;10.038;2022-09-01T12:14:41;0.63;;;0.40;;
29940;SDS011;16801;53.562;10.038;2022-09-01T12:18:12;0.20;;;0.20;;
29940;SDS011;16801;53.562;10.038;2022-09-01T12:21:38;0.20;;;0.20;;
29940;SDS011;16801;53.562;10.038;2022-09-01T12:25:02;0.40;;;0.30;;
29940;SDS011;16801;53.562;10.038;2022-09-01T12:28:23;0.30;;;0.22;;
29940;SDS011;16801;53.562;10.038;2022-09-01T12:31:50;0.25;;;0.25;;
29940;SDS011;16801;53.562;10.038;2022-09-01T12:35:15;0.60;;;0.60;;
29940;SDS011;16801;53.562;10.038;2022-09-01T12:38:40;0.63;;;0.20;;
29940;SDS011;16801;53.562;10.038;2022-09-01T12:42:06;0.57;;;0.50;;
29940;SDS011;16801;53.562;10.038;2022-09-01T12:45:37;0.47;;;0.30;;
29940;SDS011;16801;53.562;10.038;2022-09-01T12:49:14;2.45;;;0.20;;
29940;SDS011;16801;53.562;10.038;2022-09-01T12:52:42;0.73;;;0.40;;
29940;SDS011;16801;53.562;10.038;2022-09-01T12:56:15;0.63;;;0.50;;
29940;SDS011;16801;53.562;10.038;2022-09-01T12:59:39;0.30;;;0.30;;
29940;SDS011;16801;53.562;10.038;2022-09-01T13:03:04;0.80;;;0.40;;
29940;SDS011;16801;53.562;10.038;2022-09-01T13:06:31;3.00;;;0.57;;
29940;SDS011;16801;53.562;10.038;2022-09-01T13:09:53;1.83;;;0.45;;
29940;SDS011;16801;53.562;10.038;2022-09-01T13:13:14;0.43;;;0.32;;
29940;SDS011;16801;53.562;10.038;2022-09-01T13:16:37;1.45;;;0.47;;
29940;SDS011;16801;53.562;10.038;2022-09-01T13:19:58;0.38;;;0.38;;
29940;SDS011;16801;53.562;10.038;2022-09-01T13:23:19;1.65;;;0.82;;
29940;SDS011;16801;53.562;10.038;2022-09-01T13:26:41;0.68;;;0.30;;
29940;SDS011;16801;53.562;10.038;2022-09-01T13:30:14;1.42;;;0.40;;
29940;SDS011;16801;53.562;10.038;2022-09-01T13:33:36;0.57;;;0.57;;
29940;SDS011;16801;53.562;10.038;2022-09-01T13:36:58;0.80;;;0.80;;
29940;SDS011;16801;53.562;10.038;2022-09-01T13:40:19;1.65;;;0.60;;
29940;SDS011;16801;53.562;10.038;2022-09-01T13:43:42;1.75;;;0.68;;
29940;SDS011;16801;53.562;10.038;2022-09-01T13:47:05;0.60;;;0.30;;
29940;SDS011;16801;53.562;10.038;2022-09-01T13:50:27;0.40;;;0.40;;
29940;SDS011;16801;53.562;10.038;2022-09-01T13:53:50;0.20;;;0.20;;
29940;SDS011;16801;53.562;10.038;2022-09-01T13:57:11;0.63;;;0.63;;
29940;SDS011;16801;53.562;10.038;2022-09-01T14:00:35;0.60;;;0.30;;
29940;SDS011;16801;53.562;10.038;2022-09-01T14:03:58;0.30;;;0.30;;
29940;SDS011;16801;53.562;10.038;2022-09-01T14:07:20;0.22;;;0.20;;
29940;SDS011;16801;53.562;10.038;2022-09-01T14:10:41;1.45;;;0.93;;
29940;SDS011;16801;53.562;10.038;2022-09-01T14:14:04;0.95;;;0.35;;
29940;SDS011;16801;53.562;10.038;2022-09-01T14:17:26;0.38;;;0.30;;
29940;SDS011;16801;53.562;10.038;2022-09-01T14:20:48;0.30;;;0.30;;
29940;SDS011;16801;53.562;10.038;2022-09-01T14:24:10;0.47;;;0.35;;
29940;SDS011;16801;53.562;10.038;2022-09-01T14:27:31;0.30;;;0.30;;
29940;SDS011;16801;53.562;10.038;2022-09-01T14:30:52;0.30;;;0.30;;
29940;SDS011;16801;53.562;10.038;2022-09-01T14:34:14;0.30;;;0.30;;
29940;SDS011;16801;53.562;10.038;2022-09-01T14:37:37;0.32;;;0.28;;
29940;SDS011;16801;53.562;10.038;2022-09-01T14:40:59;0.30;;;0.30;;
29940;SDS011;16801;53.562;10.038;2022-09-01T14:44:21;0.40;;;0.40;;
29940;SDS011;16801;53.562;10.038;2022-09-01T14:47:42;0.57;;;0.55;;
29940;SDS011;16801;53.562;10.038;2022-09-01T14:51:05;0.90;;;0.50;;
29940;SDS011;16801;53.562;10.038;2022-09-01T14:54:27;0.40;;;0.32;;
29940;SDS011;16801;53.562;10.038;2022-09-01T14:57:49;0.57;;;0.57;;
29940;SDS011;16801;53.562;10.038;2022-09-01T15:01:10;0.40;;;0.40;;
29940;SDS011;16801;53.562;10.038;2022-09-01T15:04:31;0.30;;;0.22;;
29940;SDS011;16801;53.562;10.038;2022-09-01T15:07:54;0.88;;;0.40;;
29940;SDS011;16801;53.562;10.038;2022-09-01T15:11:16;0.73;;;0.45;;
29940;SDS011;16801;53.562;10.038;2022-09-01T15:14:39;0.52;;;0.40;;
29940;SDS011;16801;53.562;10.038;2022-09-01T15:18:00;2.80;;;0.57;;
29940;SDS011;16801;53.562;10.038;2022-09-01T15:21:22;1.95;;;0.50;;
29940;SDS011;16801;53.562;10.038;2022-09-01T15:24:46;0.80;;;0.32;;
29940;SDS011;16801;53.562;10.038;2022-09-01T15:28:07;0.63;;;0.38;;
29940;SDS011;16801;53.562;10.038;2022-09-01T15:31:28;1.08;;;0.93;;
29940;SDS011;16801;53.562;10.038;2022-09-01T15:34:51;2.05;;;1.92;;
29940;SDS011;16801;53.562;10.038;2022-09-01T15:38:13;0.50;;;0.50;;
29940;SDS011;16801;53.562;10.038;2022-09-01T15:41:36;0.52;;;0.52;;
29940;SDS011;16801;53.562;10.038;2022-09-01T15:44:57;0.68;;;0.28;;
29940;SDS011;16801;53.562;10.038;2022-09-01T15:48:17;0.52;;;0.40;;
29940;SDS011;16801;53.562;10.038;2022-09-01T15:51:39;0.35;;;0.35;;
29940;SDS011;16801;53.562;10.038;2022-09-01T15:55:02;0.30;;;0.30;;
29940;SDS011;16801;53.562;10.038;2022-09-01T15:58:24;0.30;;;0.30;;
29940;SDS011;16801;53.562;10.038;2022-09-01T16:01:46;0.73;;;0.43;;
29940;SDS011;16801;53.562;10.038;2022-09-01T16:05:07;0.60;;;0.47;;
29940;SDS011;16801;53.562;10.038;2022-09-01T16:08:29;0.32;;;0.30;;
29940;SDS011;16801;53.562;10.038;2022-09-01T16:11:50;0.70;;;0.70;;
29940;SDS011;16801;53.562;10.038;2022-09-01T16:15:15;0.32;;;0.32;;
29940;SDS011;16801;53.562;10.038;2022-09-01T16:18:38;0.30;;;0.30;;
29940;SDS011;16801;53.562;10.038;2022-09-01T16:22:09;1.05;;;0.70;;
29940;SDS011;16801;53.562;10.038;2022-09-01T16:25:33;0.95;;;0.43;;
29940;SDS011;16801;53.562;10.038;2022-09-01T16:28:55;0.57;;;0.57;;
29940;SDS011;16801;53.562;10.038;2022-09-01T16:32:19;1.30;;;0.20;;
29940;SDS011;16801;53.562;10.038;2022-09-01T16:35:43;0.43;;;0.17;;
29940;SDS011;16801;53.562;10.038;2022-09-01T16:39:12;0.20;;;0.20;;
29940;SDS011;16801;53.562;10.038;2022-09-01T16:42:42;1.67;;;0.50;;
29940;SDS011;16801;53.562;10.038;2022-09-01T16:46:09;0.52;;;0.52;;
29940;SDS011;16801;53.562;10.038;2022-09-01T16:49:41;0.38;;;0.38;;
29940;SDS011;16801;53.562;10.038;2022-09-01T16:53:12;2.05;;;0.40;;
29940;SDS011;16801;53.562;10.038;2022-09-01T16:56:44;1.20;;;0.70;;
29940;SDS011;16801;53.562;10.038;2022-09-01T17:00:12;1.42;;;0.80;;
29940;SDS011;16801;53.562;10.038;2022-09-01T17:03:39;1.20;;;0.50;;
29940;SDS011;16801;53.562;10.038;2022-09-01T17:07:15;0.57;;;0.55;;
29940;SDS011;16801;53.562;10.038;2022-09-01T17:10:42;0.55;;;0.47;;
29940;SDS011;16801;53.562;10.038;2022-09-01T17:14:09;2.13;;;1.17;;
29940;SDS011;16801;53.562;10.038;2022-09-01T17:17:47;1.00;;;0.77;;
29940;SDS011;16801;53.562;10.038;2022-09-01T17:21:29;0.63;;;0.50;;
29940;SDS011;16801;53.562;10.038;2022-09-01T17:24:55;0.68;;;0.35;;
29940;SDS011;16801;53.562;10.038;2022-09-01T17:28:21;0.40;;;0.40;;
29940;SDS011;16801;53.562;10.038;2022-09-01T17:31:49;0.57;;;0.57;;
29940;SDS011;16801;53.562;10.038;2022-09-01T17:35:22;1.65;;;0.60;;
29940;SDS011;16801;53.562;10.038;2022-09-01T17:38:52;2.17;;;0.50;;
29940;SDS011;16801;53.562;10.038;2022-09-01T17:42:23;1.17;;;0.40;;
29940;SDS011;16801;53.562;10.038;2022-09-01T17:45:54;24.67;;;1.55;;
29940;SDS011;16801;53.562;10.038;2022-09-01T17:49:25;0.52;;;0.52;;
29940;SDS011;16801;53.562;10.038;2022-09-01T17:52:54;0.57;;;0.40;;
29940;SDS011;16801;53.562;10.038;2022-09-01T17:56:29;0.38;;;0.38;;
29940;SDS011;16801;53.562;10.038;2022-09-01T18:00:00;0.60;;;0.52;;
29940;SDS011;16801;53.562;10.038;2022-09-01T18:11:24;0.52;;;0.35;;
29940;SDS011;16801;53.562;10.038;2022-09-01T18:14:54;0.38;;;0.38;;
29940;SDS011;16801;53.562;10.038;2022-09-01T18:18:33;2.78;;;2.30;;
29940;SDS011;16801;53.562;10.038;2022-09-01T18:21:57;0.70;;;0.70;;
29940;SDS011;16801;53.562;10.038;2022-09-01T18:25:22;0.52;;;0.52;;
29940;SDS011;16801;53.562;10.038;2022-09-01T18:28:44;1.17;;;0.55;;
29940;SDS011;16801;53.562;10.038;2022-09-01T18:32:07;1.92;;;1.13;;
29940;SDS011;16801;53.562;10.038;2022-09-01T18:35:40;1.05;;;0.70;;
29940;SDS011;16801;53.562;10.038;2022-09-01T18:39:10;1.17;;;0.70;;
29940;SDS011;16801;53.562;10.038;2022-09-01T18:42:36;0.45;;;0.45;;
29940;SDS011;16801;53.562;10.038;2022-09-01T18:46:04;0.50;;;0.50;;
29940;SDS011;16801;53.562;10.038;2022-09-01T18:49:35;0.38;;;0.38;;
29940;SDS011;16801;53.562;10.038;2022-09-01T18:53:11;1.23;;;0.88;;
29940;SDS011;16801;53.562;10.038;2022-09-01T18:56:43;0.75;;;0.52;;
29940;SDS011;16801;53.562;10.038;2022-09-01T19:00:10;1.05;;;0.63;;
29940;SDS011;16801;53.562;10.038;2022-09-01T19:03:35;1.73;;;1.63;;
29940;SDS011;16801;53.562;10.038;2022-09-01T19:07:03;1.58;;;0.70;;
29940;SDS011;16801;53.562;10.038;2022-09-01T19:10:37;1.13;;;1.13;;
29940;SDS011;16801;53.562;10.038;2022-09-01T19:14:05;1.15;;;0.80;;
29940;SDS011;16801;53.562;10.038;2022-09-01T19:17:47;0.45;;;0.45;;
29940;SDS011;16801;53.562;10.038;2022-09-01T19:21:23;0.88;;;0.60;;
29940;SDS011;16801;53.562;10.038;2022-09-01T19:24:49;0.65;;;0.50;;
29940;SDS011;16801;53.562;10.038;2022-09-01T19:28:40;0.38;;;0.35;;
29940;SDS011;16801;53.562;10.038;2022-09-01T19:32:05;0.30;;;0.30;;
29940;SDS011;16801;53.562;10.038;2022-09-01T19:35:36;0.98;;;0.50;;
29940;SDS011;16801;53.562;10.038;2022-09-01T19:38:59;0.73;;;0.70;;
29940;SDS011;16801;53.562;10.038;2022-09-01T19:42:22;0.80;;;0.50;;
29940;SDS011;16801;53.562;10.038;2022-09-01T19:45:54;1.75;;;0.40;;
29940;SDS011;16801;53.562;10.038;2022-09-01T19:49:26;0.90;;;0.60;;
29940;SDS011;16801;53.562;10.038;2022-09-01T19:52:54;0.80;;;0.68;;
29940;SDS011;16801;53.562;10.038;2022-09-01T19:56:20;0.68;;;0.52;;
29940;SDS011;16801;53.562;10.038;2022-09-01T19:59:46;0.90;;;0.60;;
29940;SDS011;16801;53.562;10.038;2022-09-01T20:03:15;0.43;;;0.43;;
29940;SDS011;16801;53.562;10.038;2022-09-01T20:06:39;1.08;;;0.75;;
29940;SDS011;16801;53.562;10.038;2022-09-01T20:10:05;0.60;;;0.60;;
29940;SDS011;16801;53.562;10.038;2022-09-01T20:13:50;1.70;;;1.13;;
29940;SDS011;16801;53.562;10.038;2022-09-01T20:17:21;1.17;;;0.95;;
29940;SDS011;16801;53.562;10.038;2022-09-01T20:20:48;0.82;;;0.82;;
29940;SDS011;16801;53.562;10.038;2022-09-01T20:24:13;1.10;;;1.00;;
29940;SDS011;16801;53.562;10.038;2022-09-01T20:27:50;0.30;;;0.30;;
29940;SDS011;16801;53.562;10.038;2022-09-01T20:31:15;2.35;;;1.23;;